sensor_id;sensor_type;location;lat;lon;timestamp;pressure;altitude;pressure_sealevel;temperature;humidity
38452;BME280;24231;52.514;13.438;2023-02-04T00:03:04;101740.29;;;3.31;71.98
38452;BME280;24231;52.514;13.438;2023-02-04T00:06:28;101753.11;;;3.10;75.16
38452;BME280;24231;52.514;13.438;2023-02-04T00:09:04;101760.57;;;2.81;76.68
38452;BME280;24231;52.514;13.438;2023-02-04T00:11:52;101764.95;;;3.20;77.65
38452;BME280;24231;52.514;13.438;2023-02-04T00:14:19;101779.65;;;2.41;80.03
38452;BME280;24231;52.514;13.438;2023-02-04T00:16:46;101782.65;;;3.05;78.42
38452;BME280;24231;52.514;13.438;2023-02-04T00:19:12;101797.90;;;2.66;78.85
38452;BME280;24231;52.514;13.438;2023-02-04T00:21:40;101803.28;;;2.73;78.62
38452;BME280;24231;52.514;13.438;2023-02-04T00:24:07;101807.59;;;2.89;79.03
38452;BME280;24231;52.514;13.438;2023-02-04T00:26:39;101816.34;;;2.80;77.79
38452;BME280;24231;52.514;13.438;2023-02-04T00:29:06;101826.94;;;2.58;79.47
38452;BME280;24231;52.514;13.438;2023-02-04T00:31:34;101838.33;;;2.79;79.00
38452;BME280;24231;52.514;13.438;2023-02-04T00:34:00;101836.90;;;2.45;80.16
38452;BME280;24231;52.514;13.438;2023-02-04T00:36:27;101854.41;;;2.73;78.47
38452;BME280;24231;52.514;13.438;2023-02-04T00:38:54;101866.57;;;2.28;79.59
38452;BME280;24231;52.514;13.438;2023-02-04T00:41:20;101868.34;;;2.57;79.37
38452;BME280;24231;52.514;13.438;2023-02-04T00:43:47;101875.79;;;2.04;82.05
38452;BME280;24231;52.514;13.438;2023-02-04T00:46:14;101886.99;;;1.64;82.79
38452;BME280;24231;52.514;13.438;2023-02-04T00:48:41;101909.83;;;2.31;79.15
38452;BME280;24231;52.514;13.438;2023-02-04T00:51:08;101925.22;;;2.28;79.90
38452;BME280;24231;52.514;13.438;2023-02-04T00:53:35;101933.41;;;2.63;77.39
38452;BME280;24231;52.514;13.438;2023-02-04T00:56:01;101950.97;;;2.05;78.59
38452;BME280;24231;52.514;13.438;2023-02-04T00:58:28;101960.75;;;2.95;74.89
38452;BME280;24231;52.514;13.438;2023-02-04T01:00:55;101968.51;;;2.54;75.72
38452;BME280;24231;52.514;13.438;2023-02-04T01:03:23;101981.94;;;2.91;73.95
38452;BME280;24231;52.514;13.438;2023-02-04T01:05:50;101991.95;;;3.00;73.15
38452;BME280;24231;52.514;13.438;2023-02-04T01:08:18;101994.33;;;2.24;75.41
38452;BME280;24231;52.514;13.438;2023-02-04T01:10:45;102002.77;;;2.45;76.31
38452;BME280;24231;52.514;13.438;2023-02-04T01:13:12;102005.20;;;2.73;75.08
38452;BME280;24231;52.514;13.438;2023-02-04T01:15:39;102013.57;;;2.12;76.81
38452;BME280;24231;52.514;13.438;2023-02-04T01:18:07;102019.38;;;2.33;76.10
38452;BME280;24231;52.514;13.438;2023-02-04T01:20:34;102031.21;;;2.45;76.22
38452;BME280;24231;52.514;13.438;2023-02-04T01:23:02;102030.11;;;2.31;75.34
38452;BME280;24231;52.514;13.438;2023-02-04T01:25:29;102036.94;;;2.73;73.72
38452;BME280;24231;52.514;13.438;2023-02-04T01:27:56;102048.37;;;3.04;73.20
38452;BME280;24231;52.514;13.438;2023-02-04T01:30:23;102057.77;;;2.59;73.48
38452;BME280;24231;52.514;13.438;2023-02-04T01:32:50;102070.15;;;2.53;73.83
38452;BME280;24231;52.514;13.438;2023-02-04T01:35:28;102074.34;;;2.78;73.64
38452;BME280;24231;52.514;13.438;2023-02-04T01:37:56;102086.69;;;2.74;74.25
38452;BME280;24231;52.514;13.438;2023-02-04T01:40:24;102095.45;;;2.59;74.21
38452;BME280;24231;52.514;13.438;2023-02-04T01:42:51;102103.02;;;2.55;74.59
38452;BME280;24231;52.514;13.438;2023-02-04T01:45:19;102107.51;;;1.89;76.72
38452;BME280;24231;52.514;13.438;2023-02-04T01:47:47;102105.92;;;2.25;75.71
38452;BME280;24231;52.514;13.438;2023-02-04T01:50:16;102112.28;;;2.11;76.78
38452;BME280;24231;52.514;13.438;2023-02-04T01:52:44;102121.06;;;2.28;75.20
38452;BME280;24231;52.514;13.438;2023-02-04T01:55:14;102121.87;;;2.20;75.92
38452;BME280;24231;52.514;13.438;2023-02-04T01:57:42;102134.98;;;1.60;78.04
38452;BME280;24231;52.514;13.438;2023-02-04T02:00:14;102144.62;;;2.55;74.17
38452;BME280;24231;52.514;13.438;2023-02-04T02:02:44;102161.66;;;2.66;73.15
38452;BME280;24231;52.514;13.438;2023-02-04T02:05:14;102168.47;;;2.16;74.17
38452;BME280;24231;52.514;13.438;2023-02-04T02:07:42;102179.05;;;2.15;73.83
38452;BME280;24231;52.514;13.438;2023-02-04T02:10:11;102186.13;;;2.81;72.08
38452;BME280;24231;52.514;13.438;2023-02-04T02:12:40;102198.08;;;3.06;71.26
38452;BME280;24231;52.514;13.438;2023-02-04T02:15:09;102206.02;;;2.34;72.47
38452;BME280;24231;52.514;13.438;2023-02-04T02:17:38;102213.38;;;2.37;73.84
38452;BME280;24231;52.514;13.438;2023-02-04T02:20:07;102218.45;;;2.87;72.19
38452;BME280;24231;52.514;13.438;2023-02-04T02:22:40;102222.95;;;2.89;70.34
38452;BME280;24231;52.514;13.438;2023-02-04T02:25:13;102230.15;;;3.36;68.16
38452;BME280;24231;52.514;13.438;2023-02-04T02:27:40;102237.14;;;3.49;67.84
38452;BME280;24231;52.514;13.438;2023-02-04T02:30:09;102244.62;;;3.61;66.70
38452;BME280;24231;52.514;13.438;2023-02-04T02:32:39;102255.31;;;2.86;69.89
38452;BME280;24231;52.514;13.438;2023-02-04T02:35:07;102258.04;;;3.67;66.16
38452;BME280;24231;52.514;13.438;2023-02-04T02:37:34;102259.63;;;3.59;66.37
38452;BME280;24231;52.514;13.438;2023-02-04T02:40:02;102272.66;;;3.48;67.77
38452;BME280;24231;52.514;13.438;2023-02-04T02:42:30;102272.88;;;3.68;65.92
38452;BME280;24231;52.514;13.438;2023-02-04T02:44:58;102273.22;;;3.82;65.97
38452;BME280;24231;52.514;13.438;2023-02-04T02:47:25;102283.57;;;3.39;67.30
38452;BME280;24231;52.514;13.438;2023-02-04T02:49:53;102296.37;;;2.72;69.48
38452;BME280;24231;52.514;13.438;2023-02-04T02:52:20;102299.71;;;2.77;69.95
38452;BME280;24231;52.514;13.438;2023-02-04T02:54:48;102301.83;;;2.91;69.45
38452;BME280;24231;52.514;13.438;2023-02-04T02:57:17;102305.11;;;3.20;67.68
38452;BME280;24231;52.514;13.438;2023-02-04T02:59:46;102315.50;;;2.32;71.50
38452;BME280;24231;52.514;13.438;2023-02-04T03:02:16;102320.26;;;3.23;67.62
38452;BME280;24231;52.514;13.438;2023-02-04T03:04:47;102321.99;;;3.87;65.33
38452;BME280;24231;52.514;13.438;2023-02-04T03:07:16;102329.19;;;3.53;66.87
38452;BME280;24231;52.514;13.438;2023-02-04T03:09:44;102337.72;;;3.11;67.69
38452;BME280;24231;52.514;13.438;2023-02-04T03:12:12;102339.47;;;3.69;65.61
38452;BME280;24231;52.514;13.438;2023-02-04T03:14:40;102348.56;;;3.34;66.28
38452;BME280;24231;52.514;13.438;2023-02-04T03:17:08;102351.10;;;2.92;68.02
38452;BME280;24231;52.514;13.438;2023-02-04T03:19:36;102359.39;;;3.89;65.85
38452;BME280;24231;52.514;13.438;2023-02-04T03:22:04;102362.52;;;3.20;67.71
38452;BME280;24231;52.514;13.438;2023-02-04T03:24:32;102367.83;;;3.44;65.96
38452;BME280;24231;52.514;13.438;2023-02-04T03:27:00;102382.80;;;3.18;67.45
38452;BME280;24231;52.514;13.438;2023-02-04T03:29:27;102389.71;;;3.19;66.62
38452;BME280;24231;52.514;13.438;2023-02-04T03:31:54;102394.31;;;3.03;68.31
38452;BME280;24231;52.514;13.438;2023-02-04T03:34:21;102402.16;;;2.90;69.13
38452;BME280;24231;52.514;13.438;2023-02-04T03:36:48;102409.62;;;2.70;69.24
38452;BME280;24231;52.514;13.438;2023-02-04T03:39:16;102410.55;;;2.93;68.68
38452;BME280;24231;52.514;13.438;2023-02-04T03:41:43;102421.41;;;2.70;69.86
38452;BME280;24231;52.514;13.438;2023-02-04T03:44:10;102433.70;;;2.10;71.97
38452;BME280;24231;52.514;13.438;2023-02-04T03:46:37;102445.87;;;2.26;72.06
38452;BME280;24231;52.514;13.438;2023-02-04T03:49:04;102456.00;;;2.40;71.07
38452;BME280;24231;52.514;13.438;2023-02-04T03:51:31;102465.40;;;2.38;71.70
38452;BME280;24231;52.514;13.438;2023-02-04T03:53:58;102476.01;;;2.04;71.80
38452;BME280;24231;52.514;13.438;2023-02-04T03:56:26;102483.45;;;2.80;69.50
38452;BME280;24231;52.514;13.438;2023-02-04T03:58:53;102487.52;;;2.95;68.10
38452;BME280;24231;52.514;13.438;2023-02-04T04:01:21;102491.81;;;3.05;68.54
38452;BME280;24231;52.514;13.438;2023-02-04T04:03:48;102496.27;;;3.32;67.53
38452;BME280;24231;52.514;13.438;2023-02-04T04:06:15;102508.13;;;3.21;66.97
38452;BME280;24231;52.514;13.438;2023-02-04T04:08:42;102520.28;;;2.67;69.12
38452;BME280;24231;52.514;13.438;2023-02-04T04:11:09;102525.33;;;2.64;69.29
38452;BME280;24231;52.514;13.438;2023-02-04T04:13:35;102524.20;;;3.16;67.82
38452;BME280;24231;52.514;13.438;2023-02-04T04:16:02;102524.72;;;3.65;66.25
38452;BME280;24231;52.514;13.438;2023-02-04T04:18:30;102534.90;;;2.37;71.02
38452;BME280;24231;52.514;13.438;2023-02-04T04:20:58;102542.91;;;2.84;69.23
38452;BME280;24231;52.514;13.438;2023-02-04T04:23:25;102546.90;;;2.90;68.34
38452;BME280;24231;52.514;13.438;2023-02-04T04:25:52;102546.81;;;3.48;66.02
38452;BME280;24231;52.514;13.438;2023-02-04T04:28:19;102558.15;;;2.63;69.29
38452;BME280;24231;52.514;13.438;2023-02-04T04:30:45;102563.23;;;2.96;68.40
38452;BME280;24231;52.514;13.438;2023-02-04T04:33:12;102567.75;;;2.45;70.44
38452;BME280;24231;52.514;13.438;2023-02-04T04:35:40;102571.59;;;2.94;68.62
38452;BME280;24231;52.514;13.438;2023-02-04T04:38:06;102581.24;;;2.79;70.08
38452;BME280;24231;52.514;13.438;2023-02-04T04:40:33;102586.98;;;2.55;71.15
38452;BME280;24231;52.514;13.438;2023-02-04T04:43:00;102593.53;;;2.93;69.32
38452;BME280;24231;52.514;13.438;2023-02-04T04:45:27;102600.87;;;3.41;67.79
38452;BME280;24231;52.514;13.438;2023-02-04T04:47:53;102606.26;;;2.03;72.95
38452;BME280;24231;52.514;13.438;2023-02-04T04:50:20;102611.17;;;2.00;73.50
38452;BME280;24231;52.514;13.438;2023-02-04T04:52:48;102619.32;;;2.59;71.45
38452;BME280;24231;52.514;13.438;2023-02-04T04:55:15;102627.83;;;3.23;68.67
38452;BME280;24231;52.514;13.438;2023-02-04T04:57:43;102635.58;;;3.14;68.55
38452;BME280;24231;52.514;13.438;2023-02-04T05:00:15;102641.89;;;2.99;69.27
38452;BME280;24231;52.514;13.438;2023-02-04T05:02:42;102646.47;;;2.77;68.89
38452;BME280;24231;52.514;13.438;2023-02-04T05:05:09;102654.12;;;3.29;67.18
38452;BME280;24231;52.514;13.438;2023-02-04T05:07:37;102658.88;;;3.42;68.00
38452;BME280;24231;52.514;13.438;2023-02-04T05:10:05;102661.94;;;3.37;67.15
38452;BME280;24231;52.514;13.438;2023-02-04T05:12:32;102668.77;;;3.19;67.63
38452;BME280;24231;52.514;13.438;2023-02-04T05:14:59;102664.21;;;3.91;64.64
38452;BME280;24231;52.514;13.438;2023-02-04T05:17:26;102675.53;;;3.53;67.36
38452;BME280;24231;52.514;13.438;2023-02-04T05:19:52;102680.58;;;3.34;66.92
38452;BME280;24231;52.514;13.438;2023-02-04T05:22:19;102682.35;;;3.01;69.03
38452;BME280;24231;52.514;13.438;2023-02-04T05:24:46;102690.82;;;3.70;65.29
38452;BME280;24231;52.514;13.438;2023-02-04T05:27:13;102695.99;;;3.70;65.19
38452;BME280;24231;52.514;13.438;2023-02-04T05:29:40;102704.07;;;3.86;65.05
38452;BME280;24231;52.514;13.438;2023-02-04T05:32:07;102709.38;;;3.71;65.24
38452;BME280;24231;52.514;13.438;2023-02-04T05:34:35;102713.14;;;3.93;65.27
38452;BME280;24231;52.514;13.438;2023-02-04T05:37:01;102724.97;;;3.70;65.53
38452;BME280;24231;52.514;13.438;2023-02-04T05:39:28;102726.85;;;3.27;66.63
38452;BME280;24231;52.514;13.438;2023-02-04T05:41:57;102728.05;;;3.57;65.84
38452;BME280;24231;52.514;13.438;2023-02-04T05:44:24;102732.86;;;3.20;67.13
38452;BME280;24231;52.514;13.438;2023-02-04T05:46:52;102746.76;;;2.53;70.62
38452;BME280;24231;52.514;13.438;2023-02-04T05:49:24;102748.11;;;2.83;69.21
38452;BME280;24231;52.514;13.438;2023-02-04T05:51:51;102755.10;;;3.57;66.34
38452;BME280;24231;52.514;13.438;2023-02-04T05:54:19;102762.58;;;2.55;70.25
38452;BME280;24231;52.514;13.438;2023-02-04T05:56:46;102760.97;;;3.11;68.19
38452;BME280;24231;52.514;13.438;2023-02-04T05:59:14;102770.01;;;2.70;69.50
38452;BME280;24231;52.514;13.438;2023-02-04T06:01:41;102774.39;;;2.77;69.56
38452;BME280;24231;52.514;13.438;2023-02-04T06:04:08;102774.83;;;2.85;68.28
38452;BME280;24231;52.514;13.438;2023-02-04T06:06:35;102778.42;;;3.22;67.40
38452;BME280;24231;52.514;13.438;2023-02-04T06:09:02;102792.26;;;2.32;71.90
38452;BME280;24231;52.514;13.438;2023-02-04T06:11:30;102797.30;;;2.79;69.86
38452;BME280;24231;52.514;13.438;2023-02-04T06:13:56;102805.46;;;2.20;71.71
38452;BME280;24231;52.514;13.438;2023-02-04T06:16:23;102810.27;;;2.30;71.34
38452;BME280;24231;52.514;13.438;2023-02-04T06:18:50;102814.89;;;2.03;71.77
38452;BME280;24231;52.514;13.438;2023-02-04T06:21:17;102815.32;;;2.24;71.30
38452;BME280;24231;52.514;13.438;2023-02-04T06:23:44;102819.23;;;2.12;72.95
38452;BME280;24231;52.514;13.438;2023-02-04T06:26:11;102821.43;;;2.82;69.78
38452;BME280;24231;52.514;13.438;2023-02-04T06:28:38;102825.42;;;3.09;68.30
38452;BME280;24231;52.514;13.438;2023-02-04T06:31:05;102829.18;;;3.21;68.09
38452;BME280;24231;52.514;13.438;2023-02-04T06:33:32;102832.68;;;2.38;71.33
38452;BME280;24231;52.514;13.438;2023-02-04T06:35:59;102838.52;;;2.20;71.11
38452;BME280;24231;52.514;13.438;2023-02-04T06:38:25;102841.01;;;2.45;71.48
38452;BME280;24231;52.514;13.438;2023-02-04T06:40:52;102849.15;;;1.65;73.33
38452;BME280;24231;52.514;13.438;2023-02-04T06:43:19;102853.07;;;2.29;71.57
38452;BME280;24231;52.514;13.438;2023-02-04T06:45:47;102853.46;;;2.35;71.96
38452;BME280;24231;52.514;13.438;2023-02-04T06:48:14;102857.63;;;2.29;70.74
38452;BME280;24231;52.514;13.438;2023-02-04T06:50:41;102858.46;;;2.43;71.18
38452;BME280;24231;52.514;13.438;2023-02-04T06:53:08;102859.97;;;2.74;69.46
38452;BME280;24231;52.514;13.438;2023-02-04T06:55:35;102857.88;;;2.52;71.43
38452;BME280;24231;52.514;13.438;2023-02-04T06:58:02;102856.27;;;2.82;70.37
38452;BME280;24231;52.514;13.438;2023-02-04T07:00:29;102862.58;;;1.68;73.07
38452;BME280;24231;52.514;13.438;2023-02-04T07:02:57;102861.10;;;2.52;71.17
38452;BME280;24231;52.514;13.438;2023-02-04T07:05:24;102863.81;;;2.90;69.82
38452;BME280;24231;52.514;13.438;2023-02-04T07:07:51;102865.71;;;2.78;69.27
38452;BME280;24231;52.514;13.438;2023-02-04T07:10:19;102863.83;;;1.98;72.38
38452;BME280;24231;52.514;13.438;2023-02-04T07:12:46;102865.49;;;1.84;73.13
38452;BME280;24231;52.514;13.438;2023-02-04T07:15:13;102867.32;;;1.92;73.74
38452;BME280;24231;52.514;13.438;2023-02-04T07:17:41;102866.91;;;2.28;73.73
38452;BME280;24231;52.514;13.438;2023-02-04T07:20:09;102871.16;;;2.40;71.98
38452;BME280;24231;52.514;13.438;2023-02-04T07:22:37;102871.76;;;3.29;68.57
38452;BME280;24231;52.514;13.438;2023-02-04T07:25:04;102877.21;;;4.04;65.39
38452;BME280;24231;52.514;13.438;2023-02-04T07:27:31;102887.84;;;3.84;65.94
38452;BME280;24231;52.514;13.438;2023-02-04T07:29:59;102894.96;;;4.65;62.13
38452;BME280;24231;52.514;13.438;2023-02-04T07:32:49;102903.50;;;4.74;62.02
38452;BME280;24231;52.514;13.438;2023-02-04T07:35:16;102905.73;;;4.36;63.46
38452;BME280;24231;52.514;13.438;2023-02-04T07:40:36;102912.73;;;4.95;62.17
38452;BME280;24231;52.514;13.438;2023-02-04T07:44:09;102918.51;;;4.92;61.75
38452;BME280;24231;52.514;13.438;2023-02-04T07:46:36;102924.14;;;5.15;60.19
38452;BME280;24231;52.514;13.438;2023-02-04T07:49:47;102924.07;;;5.98;57.59
38452;BME280;24231;52.514;13.438;2023-02-04T07:56:51;102952.10;;;5.33;59.12
38452;BME280;24231;52.514;13.438;2023-02-04T07:59:19;102951.79;;;5.60;58.12
38452;BME280;24231;52.514;13.438;2023-02-04T08:01:46;102958.69;;;5.20;59.16
38452;BME280;24231;52.514;13.438;2023-02-04T08:04:13;102963.10;;;5.26;59.53
38452;BME280;24231;52.514;13.438;2023-02-04T08:06:41;102964.58;;;5.73;58.40
38452;BME280;24231;52.514;13.438;2023-02-04T08:09:08;102965.86;;;5.57;57.87
38452;BME280;24231;52.514;13.438;2023-02-04T08:11:35;102971.95;;;5.33;58.51
38452;BME280;24231;52.514;13.438;2023-02-04T08:14:02;102968.45;;;5.87;57.39
38452;BME280;24231;52.514;13.438;2023-02-04T08:16:30;102972.37;;;6.07;56.26
38452;BME280;24231;52.514;13.438;2023-02-04T08:18:57;102975.29;;;6.12;56.89
38452;BME280;24231;52.514;13.438;2023-02-04T08:21:24;102978.39;;;6.09;56.49
38452;BME280;24231;52.514;13.438;2023-02-04T08:23:51;102983.46;;;6.28;56.40
38452;BME280;24231;52.514;13.438;2023-02-04T08:26:19;102985.19;;;6.14;55.76
38452;BME280;24231;52.514;13.438;2023-02-04T08:28:46;102990.14;;;6.71;54.46
38452;BME280;24231;52.514;13.438;2023-02-04T08:31:13;102993.10;;;6.52;55.65
38452;BME280;24231;52.514;13.438;2023-02-04T08:33:40;103000.53;;;6.42;55.83
38452;BME280;24231;52.514;13.438;2023-02-04T08:36:08;102998.67;;;6.82;56.61
38452;BME280;24231;52.514;13.438;2023-02-04T08:38:35;103002.85;;;6.28;55.60
38452;BME280;24231;52.514;13.438;2023-02-04T08:41:03;103004.81;;;6.50;54.78
38452;BME280;24231;52.514;13.438;2023-02-04T08:43:30;103009.01;;;6.30;55.61
38452;BME280;24231;52.514;13.438;2023-02-04T08:45:57;103011.18;;;6.30;54.99
38452;BME280;24231;52.514;13.438;2023-02-04T08:48:24;103007.16;;;6.81;54.20
38452;BME280;24231;52.514;13.438;2023-02-04T08:50:51;103009.74;;;7.12;52.24
38452;BME280;24231;52.514;13.438;2023-02-04T08:53:19;103009.77;;;7.08;53.32
38452;BME280;24231;52.514;13.438;2023-02-04T08:55:46;103010.61;;;6.95;52.20
38452;BME280;24231;52.514;13.438;2023-02-04T08:58:14;103012.68;;;6.99;52.05
38452;BME280;24231;52.514;13.438;2023-02-04T09:00:41;103023.68;;;7.40;51.33
38452;BME280;24231;52.514;13.438;2023-02-04T09:03:08;103023.17;;;7.10;52.42
38452;BME280;24231;52.514;13.438;2023-02-04T09:05:35;103025.63;;;6.99;52.40
38452;BME280;24231;52.514;13.438;2023-02-04T09:08:02;103027.00;;;6.90;52.62
38452;BME280;24231;52.514;13.438;2023-02-04T09:10:30;103034.00;;;7.00;53.09
38452;BME280;24231;52.514;13.438;2023-02-04T09:12:58;103035.60;;;7.31;51.41
38452;BME280;24231;52.514;13.438;2023-02-04T09:15:25;103038.04;;;7.42;51.66
38452;BME280;24231;52.514;13.438;2023-02-04T09:17:53;103041.31;;;7.92;49.94
38452;BME280;24231;52.514;13.438;2023-02-04T09:20:20;103044.44;;;8.14;49.29
38452;BME280;24231;52.514;13.438;2023-02-04T09:22:47;103046.88;;;8.19;48.34
38452;BME280;24231;52.514;13.438;2023-02-04T09:25:14;103057.15;;;7.87;49.15
38452;BME280;24231;52.514;13.438;2023-02-04T09:27:42;103052.98;;;7.30;50.89
38452;BME280;24231;52.514;13.438;2023-02-04T09:30:10;103060.80;;;6.98;51.16
38452;BME280;24231;52.514;13.438;2023-02-04T09:32:37;103069.64;;;6.86;51.73
38452;BME280;24231;52.514;13.438;2023-02-04T09:35:06;103073.99;;;7.27;50.30
38452;BME280;24231;52.514;13.438;2023-02-04T09:37:33;103079.03;;;7.72;49.26
38452;BME280;24231;52.514;13.438;2023-02-04T09:40:00;103083.03;;;8.16;48.58
38452;BME280;24231;52.514;13.438;2023-02-04T09:42:28;103083.72;;;8.13;48.71
38452;BME280;24231;52.514;13.438;2023-02-04T09:44:56;103087.26;;;8.10;48.07
38452;BME280;24231;52.514;13.438;2023-02-04T09:47:24;103087.81;;;8.34;47.26
38452;BME280;24231;52.514;13.438;2023-02-04T09:49:53;103091.83;;;8.54;47.27
38452;BME280;24231;52.514;13.438;2023-02-04T09:52:20;103096.17;;;8.28;46.63
38452;BME280;24231;52.514;13.438;2023-02-04T09:54:47;103092.04;;;8.58;46.04
38452;BME280;24231;52.514;13.438;2023-02-04T09:57:17;103095.78;;;8.75;45.65
38452;BME280;24231;52.514;13.438;2023-02-04T09:59:45;103094.15;;;8.47;45.53
38452;BME280;24231;52.514;13.438;2023-02-04T10:02:22;103097.45;;;8.45;45.75
38452;BME280;24231;52.514;13.438;2023-02-04T10:04:51;103103.42;;;7.91;47.23
38452;BME280;24231;52.514;13.438;2023-02-04T10:07:21;103105.15;;;7.93;46.43
38452;BME280;24231;52.514;13.438;2023-02-04T10:09:49;103108.39;;;7.65;46.69
38452;BME280;24231;52.514;13.438;2023-02-04T10:12:16;103109.77;;;7.97;45.76
38452;BME280;24231;52.514;13.438;2023-02-04T10:14:43;103110.06;;;6.59;49.00
38452;BME280;24231;52.514;13.438;2023-02-04T10:17:12;103111.96;;;6.51;49.32
38452;BME280;24231;52.514;13.438;2023-02-04T10:19:41;103105.58;;;6.66;49.32
38452;BME280;24231;52.514;13.438;2023-02-04T10:22:15;103107.58;;;7.20;49.24
38452;BME280;24231;52.514;13.438;2023-02-04T10:24:43;103107.33;;;7.37;47.66
38452;BME280;24231;52.514;13.438;2023-02-04T10:27:12;103108.63;;;7.72;47.48
38452;BME280;24231;52.514;13.438;2023-02-04T10:30:22;103114.08;;;7.79;47.02
38452;BME280;24231;52.514;13.438;2023-02-04T10:32:50;103112.56;;;8.08;45.96
38452;BME280;24231;52.514;13.438;2023-02-04T10:35:20;103119.71;;;7.91;45.86
38452;BME280;24231;52.514;13.438;2023-02-04T10:37:47;103122.29;;;8.02;45.70
38452;BME280;24231;52.514;13.438;2023-02-04T10:40:29;103119.61;;;7.70;44.95
38452;BME280;24231;52.514;13.438;2023-02-04T10:42:57;103126.02;;;5.49;50.25
38452;BME280;24231;52.514;13.438;2023-02-04T10:45:32;103123.14;;;5.32;52.66
38452;BME280;24231;52.514;13.438;2023-02-04T10:47:59;103123.24;;;6.90;50.69
38452;BME280;24231;52.514;13.438;2023-02-04T10:50:27;103121.29;;;7.74;48.08
38452;BME280;24231;52.514;13.438;2023-02-04T10:52:57;103120.29;;;7.83;45.53
38452;BME280;24231;52.514;13.438;2023-02-04T10:55:34;103121.44;;;7.12;44.96
38452;BME280;24231;52.514;13.438;2023-02-04T10:58:01;103125.56;;;7.00;46.96
38452;BME280;24231;52.514;13.438;2023-02-04T11:00:28;103131.17;;;6.74;48.39
38452;BME280;24231;52.514;13.438;2023-02-04T11:03:10;103134.07;;;6.38;47.76
38452;BME280;24231;52.514;13.438;2023-02-04T11:05:38;103132.10;;;6.59;47.20
38452;BME280;24231;52.514;13.438;2023-02-04T11:08:19;103134.63;;;6.34;48.02
38452;BME280;24231;52.514;13.438;2023-02-04T11:10:50;103135.82;;;6.13;47.95
38452;BME280;24231;52.514;13.438;2023-02-04T11:13:23;103134.85;;;5.49;49.66
38452;BME280;24231;52.514;13.438;2023-02-04T11:16:06;103135.99;;;5.43;49.75
38452;BME280;24231;52.514;13.438;2023-02-04T11:18:45;103134.52;;;5.53;49.75
38452;BME280;24231;52.514;13.438;2023-02-04T11:21:14;103138.31;;;5.48;49.24
38452;BME280;24231;52.514;13.438;2023-02-04T11:23:47;103143.64;;;5.98;48.38
38452;BME280;24231;52.514;13.438;2023-02-04T11:26:16;103145.44;;;6.05;47.78
38452;BME280;24231;52.514;13.438;2023-02-04T11:28:46;103148.72;;;6.26;47.08
38452;BME280;24231;52.514;13.438;2023-02-04T11:31:26;103147.33;;;6.70;46.08
38452;BME280;24231;52.514;13.438;2023-02-04T11:34:08;103153.34;;;6.78;45.67
38452;BME280;24231;52.514;13.438;2023-02-04T11:36:50;103159.13;;;6.47;46.72
38452;BME280;24231;52.514;13.438;2023-02-04T11:44:01;103161.86;;;5.72;47.51
38452;BME280;24231;52.514;13.438;2023-02-04T11:46:28;103170.90;;;5.74;46.85
38452;BME280;24231;52.514;13.438;2023-02-04T11:48:57;103171.65;;;5.83;48.01
38452;BME280;24231;52.514;13.438;2023-02-04T11:51:29;103177.05;;;6.21;47.02
38452;BME280;24231;52.514;13.438;2023-02-04T11:53:57;103182.44;;;5.24;47.94
38452;BME280;24231;52.514;13.438;2023-02-04T11:56:28;103181.49;;;5.95;46.50
38452;BME280;24231;52.514;13.438;2023-02-04T11:58:57;103181.36;;;6.74;45.97
38452;BME280;24231;52.514;13.438;2023-02-04T12:01:30;103176.92;;;6.86;44.87
38452;BME280;24231;52.514;13.438;2023-02-04T12:04:00;103175.22;;;6.15;46.22
38452;BME280;24231;52.514;13.438;2023-02-04T12:06:29;103172.78;;;6.39;46.23
38452;BME280;24231;52.514;13.438;2023-02-04T12:09:04;103172.22;;;6.42;45.67
38452;BME280;24231;52.514;13.438;2023-02-04T12:11:32;103169.88;;;6.43;45.80
38452;BME280;24231;52.514;13.438;2023-02-04T12:14:06;103167.92;;;6.63;43.91
38452;BME280;24231;52.514;13.438;2023-02-04T12:16:39;103159.83;;;7.33;42.04
38452;BME280;24231;52.514;13.438;2023-02-04T12:19:07;103160.79;;;7.80;41.22
38452;BME280;24231;52.514;13.438;2023-02-04T12:21:34;103170.82;;;6.43;43.99
38452;BME280;24231;52.514;13.438;2023-02-04T12:24:01;103169.22;;;4.85;45.98
38452;BME280;24231;52.514;13.438;2023-02-04T12:26:29;103178.70;;;4.99;46.40
38452;BME280;24231;52.514;13.438;2023-02-04T12:28:56;103186.71;;;4.81;47.40
38452;BME280;24231;52.514;13.438;2023-02-04T12:31:24;103191.87;;;5.42;46.49
38452;BME280;24231;52.514;13.438;2023-02-04T12:33:51;103190.59;;;5.73;46.54
38452;BME280;24231;52.514;13.438;2023-02-04T12:36:19;103203.41;;;5.29;47.33
38452;BME280;24231;52.514;13.438;2023-02-04T12:38:46;103201.64;;;5.22;49.63
38452;BME280;24231;52.514;13.438;2023-02-04T12:41:14;103203.57;;;5.11;50.39
38452;BME280;24231;52.514;13.438;2023-02-04T12:43:41;103204.65;;;5.40;49.26
38452;BME280;24231;52.514;13.438;2023-02-04T12:46:08;103200.95;;;5.88;47.04
38452;BME280;24231;52.514;13.438;2023-02-04T12:48:35;103198.02;;;6.25;45.05
38452;BME280;24231;52.514;13.438;2023-02-04T12:51:02;103192.76;;;5.89;45.42
38452;BME280;24231;52.514;13.438;2023-02-04T12:53:29;103198.32;;;6.02;45.35
38452;BME280;24231;52.514;13.438;2023-02-04T12:55:58;103199.21;;;4.92;47.63
38452;BME280;24231;52.514;13.438;2023-02-04T12:58:25;103201.05;;;5.02;47.15
38452;BME280;24231;52.514;13.438;2023-02-04T13:00:52;103201.69;;;5.26;46.90
38452;BME280;24231;52.514;13.438;2023-02-04T13:03:19;103202.81;;;4.70;47.10
38452;BME280;24231;52.514;13.438;2023-02-04T13:05:46;103195.46;;;5.66;45.22
38452;BME280;24231;52.514;13.438;2023-02-04T13:08:13;103204.46;;;4.38;47.08
38452;BME280;24231;52.514;13.438;2023-02-04T13:10:41;103201.04;;;5.31;44.75
38452;BME280;24231;52.514;13.438;2023-02-04T13:13:08;103208.55;;;5.29;45.13